createdAt,value
2019-04-22T00:00:32.964Z,3.60
2019-04-22T00:03:02.807Z,4.63
2019-04-22T00:05:52.787Z,4.30
2019-04-22T00:08:16.729Z,3.77
2019-04-22T00:10:54.194Z,3.70
2019-04-22T00:13:26.183Z,4.17
2019-04-22T00:15:41.785Z,3.27
2019-04-22T00:18:23.055Z,3.50
2019-04-22T00:20:52.707Z,2.90
2019-04-22T00:23:13.180Z,3.13
2019-04-22T00:25:48.312Z,2.50
2019-04-22T00:28:19.978Z,2.80
2019-04-22T00:30:40.662Z,2.40
2019-04-22T00:33:18.692Z,2.57
2019-04-22T00:35:48.127Z,2.27
2019-04-22T00:38:19.857Z,2.60
2019-04-22T00:40:46.164Z,3.37
2019-04-22T00:43:13.903Z,2.30
2019-04-22T00:45:43.178Z,2.47
2019-04-22T00:48:17.912Z,2.83
2019-04-22T00:50:49.620Z,2.30
2019-04-22T00:53:16.338Z,2.90
2019-04-22T00:56:11.302Z,2.73
2019-04-22T00:58:43.894Z,2.73
2019-04-22T01:01:17.424Z,2.90
2019-04-22T01:03:42.743Z,2.80
2019-04-22T01:06:11.956Z,2.80
2019-04-22T01:08:40.274Z,2.73
2019-04-22T01:11:13.437Z,2.77
2019-04-22T01:13:30.432Z,2.37
2019-04-22T01:16:06.826Z,2.97
2019-04-22T01:18:29.338Z,2.80
2019-04-22T01:21:16.410Z,2.97
2019-04-22T01:23:28.205Z,2.40
2019-04-22T01:25:59.643Z,3.47
2019-04-22T01:28:23.966Z,2.77
2019-04-22T01:30:46.916Z,3.00
2019-04-22T01:33:16.892Z,2.63
2019-04-22T01:35:56.372Z,3.07
2019-04-22T01:38:23.541Z,2.70
2019-04-22T01:41:05.329Z,2.60
2019-04-22T01:43:32.818Z,3.47
2019-04-22T01:46:02.621Z,2.90
2019-04-22T01:48:26.879Z,2.40
2019-04-22T01:50:54.904Z,2.57
2019-04-22T01:53:27.515Z,3.00
2019-04-22T01:55:55.062Z,2.87
2019-04-22T01:58:18.419Z,2.97
2019-04-22T02:00:56.131Z,2.20
2019-04-22T02:03:26.535Z,2.60
2019-04-22T02:05:52.160Z,2.27
2019-04-22T02:08:23.395Z,2.57
2019-04-22T02:10:54.965Z,2.70
2019-04-22T02:13:23.749Z,2.30
2019-04-22T02:15:47.808Z,2.93
2019-04-22T02:20:43.008Z,2.80
2019-04-22T02:23:45.179Z,2.77
2019-04-22T02:26:03.951Z,2.90
2019-04-22T02:28:32.566Z,2.90
2019-04-22T02:31:13.998Z,3.07
2019-04-22T02:36:08.181Z,2.60
2019-04-22T02:43:33.996Z,2.77
2019-04-22T02:46:07.813Z,2.67
2019-04-22T02:48:40.136Z,3.10
2019-04-22T02:50:54.835Z,2.70
2019-04-22T02:53:38.502Z,3.50
2019-04-22T02:55:54.744Z,3.27
2019-04-22T02:58:27.711Z,3.83
2019-04-22T03:00:58.918Z,3.43
2019-04-22T03:05:56.657Z,3.37
2019-04-22T03:10:57.046Z,3.70
2019-04-22T03:13:34.848Z,3.60
2019-04-22T03:15:51.258Z,3.50
2019-04-22T03:18:20.363Z,3.60
2019-04-22T03:20:50.279Z,3.57
2019-04-22T03:26:00.477Z,4.10
2019-04-22T03:28:08.791Z,3.87
2019-04-22T03:35:45.024Z,4.00
2019-04-22T03:40:46.941Z,3.77
2019-04-22T03:43:26.308Z,3.53
2019-04-22T03:45:30.253Z,3.20
2019-04-22T03:48:47.423Z,3.70
2019-04-22T03:53:09.489Z,3.70
2019-04-22T03:55:41.201Z,3.93
2019-04-22T03:58:18.975Z,4.37
2019-04-22T04:05:49.640Z,3.50
2019-04-22T04:15:34.691Z,4.17
2019-04-22T04:17:55.035Z,4.00
2019-04-22T04:20:32.450Z,4.20
2019-04-22T04:23:24.411Z,4.20
2019-04-22T04:28:24.304Z,3.97
2019-04-22T04:30:29.978Z,4.43
2019-04-22T04:35:32.876Z,4.10
2019-04-22T04:40:37.722Z,3.90
2019-04-22T04:45:33.774Z,4.33
2019-04-22T04:50:51.025Z,4.87
2019-04-22T04:55:28.516Z,4.63
2019-04-22T04:57:54.439Z,4.43
2019-04-22T05:05:31.736Z,4.23
2019-04-22T05:07:56.630Z,4.67
2019-04-22T05:15:12.011Z,4.60
2019-04-22T05:20:12.899Z,5.27
2019-04-22T05:22:34.051Z,4.77
2019-04-22T05:25:04.729Z,4.63
2019-04-22T05:27:34.653Z,4.90
2019-04-22T05:32:24.600Z,4.90
2019-04-22T05:34:52.843Z,5.00
2019-04-22T05:37:27.339Z,4.60
2019-04-22T05:39:51.372Z,4.00
2019-04-22T05:42:21.291Z,4.10
2019-04-22T05:44:52.832Z,5.43
2019-04-22T05:47:22.580Z,4.20
2019-04-22T05:49:47.720Z,5.17
2019-04-22T05:52:18.402Z,4.60
2019-04-22T05:54:47.110Z,4.43
2019-04-22T05:57:17.957Z,4.37
2019-04-22T05:59:46.240Z,4.77
2019-04-22T06:04:45.011Z,4.70
2019-04-22T06:07:06.557Z,3.97
2019-04-22T06:09:46.782Z,3.90
2019-04-22T06:12:10.698Z,3.40
2019-04-22T06:14:37.093Z,3.97
2019-04-22T06:17:20.231Z,3.70
2019-04-22T06:19:44.383Z,3.77
2019-04-22T06:22:23.864Z,4.33
2019-04-22T06:24:43.726Z,3.43
2019-04-22T06:27:19.132Z,3.50
2019-04-22T06:29:38.260Z,3.27
2019-04-22T06:32:23.327Z,3.50
2019-04-22T06:39:40.103Z,3.20
2019-04-22T06:42:07.974Z,3.10
2019-04-22T06:44:36.495Z,3.03
2019-04-22T06:47:05.587Z,2.97
2019-04-22T06:49:35.520Z,3.20
2019-04-22T06:52:11.671Z,3.10
2019-04-22T06:54:37.483Z,3.30
2019-04-22T06:57:04.305Z,3.33
2019-04-22T06:59:32.693Z,3.37
2019-04-22T07:02:02.207Z,3.53
2019-04-22T07:04:29.773Z,3.33
2019-04-22T07:07:05.357Z,4.03
2019-04-22T07:12:02.432Z,3.20
2019-04-22T07:14:22.333Z,3.23
2019-04-22T07:16:56.112Z,3.40
2019-04-22T07:19:28.461Z,3.47
2019-04-22T07:21:57.697Z,3.40
2019-04-22T07:26:54.603Z,3.93
2019-04-22T07:29:23.638Z,2.83
2019-04-22T07:31:56.257Z,3.57
2019-04-22T07:34:40.770Z,3.20
2019-04-22T07:36:56.618Z,3.33
2019-04-22T07:39:15.632Z,3.63
2019-04-22T07:41:47.482Z,3.17
2019-04-22T07:44:19.893Z,3.10
2019-04-22T07:46:53.884Z,3.13
2019-04-22T07:49:18.394Z,2.87
2019-04-22T07:51:44.502Z,3.43
2019-04-22T07:54:16.280Z,3.20
2019-04-22T07:56:48.060Z,3.13
2019-04-22T07:59:15.598Z,3.27
2019-04-22T08:01:42.778Z,3.57
2019-04-22T08:06:46.085Z,3.47
2019-04-22T08:09:14.152Z,3.23
2019-04-22T08:11:51.310Z,3.47
2019-04-22T08:14:07.581Z,3.37
2019-04-22T08:16:37.709Z,3.30
2019-04-22T08:19:08.884Z,3.33
2019-04-22T08:21:44.326Z,3.23
2019-04-22T08:24:07.809Z,3.40
2019-04-22T08:26:38.225Z,3.33
2019-04-22T08:29:12.156Z,3.07
2019-04-22T08:31:35.678Z,3.47
2019-04-22T08:34:08.165Z,3.60
2019-04-22T08:36:31.571Z,3.60
2019-04-22T08:39:04.480Z,3.20
2019-04-22T08:44:04.969Z,3.37
2019-04-22T08:46:33.155Z,3.70
2019-04-22T08:48:59.897Z,3.17
2019-04-22T08:51:48.874Z,3.67
2019-04-22T08:54:00.231Z,3.00
2019-04-22T08:56:32.245Z,3.63
2019-04-22T08:59:02.053Z,3.10
2019-04-22T09:03:58.122Z,3.10
2019-04-22T09:06:39.978Z,3.60
2019-04-22T09:08:55.329Z,3.07
2019-04-22T09:11:29.666Z,3.40
2019-04-22T09:16:30.239Z,3.40
2019-04-22T09:18:48.695Z,3.67
2019-04-22T09:23:53.896Z,3.37
2019-04-22T09:26:23.983Z,3.50
2019-04-22T09:28:52.270Z,3.40
2019-04-22T09:31:18.987Z,3.33
2019-04-22T09:33:46.535Z,3.07
2019-04-22T09:36:22.388Z,3.00
2019-04-22T09:41:18.781Z,3.00
2019-04-22T09:46:15.155Z,3.30
2019-04-22T09:48:43.455Z,3.60
2019-04-22T09:51:14.998Z,3.47
2019-04-22T09:53:47.107Z,3.20
2019-04-22T09:56:09.757Z,3.33
2019-04-22T09:58:44.371Z,3.40
2019-04-22T10:01:32.416Z,3.30
2019-04-22T10:03:48.132Z,2.80
2019-04-22T10:06:16.665Z,3.00
2019-04-22T10:08:52.726Z,3.23
2019-04-22T10:11:14.293Z,3.20
2019-04-22T10:13:40.994Z,3.20
2019-04-22T10:16:10.430Z,2.70
2019-04-22T10:18:39.152Z,3.33
2019-04-22T10:21:12.664Z,2.70
2019-04-22T10:23:42.314Z,2.97
2019-04-22T10:26:04.960Z,2.97
2019-04-22T10:28:40.019Z,3.07
2019-04-22T10:31:03.313Z,3.40
2019-04-22T10:33:25.780Z,2.80
2019-04-22T10:35:37.401Z,2.93
2019-04-22T10:38:05.977Z,3.00
2019-04-22T10:40:34.607Z,3.10
2019-04-22T10:43:03.172Z,3.10
2019-04-22T10:45:30.481Z,3.20
2019-04-22T10:47:58.382Z,3.07
2019-04-22T10:50:38.061Z,3.27
2019-04-22T10:53:06.169Z,2.70
2019-04-22T10:55:34.822Z,3.43
2019-04-22T10:58:02.392Z,3.27
2019-04-22T11:00:29.824Z,3.40
2019-04-22T11:02:57.962Z,2.83
2019-04-22T11:05:26.164Z,3.23
2019-04-22T11:07:58.968Z,3.30
2019-04-22T11:10:36.827Z,3.10
2019-04-22T11:12:52.143Z,3.13
2019-04-22T11:15:20.302Z,3.40
2019-04-22T11:17:47.457Z,3.13
2019-04-22T11:20:24.009Z,3.50
2019-04-22T11:22:58.582Z,3.20
2019-04-22T11:25:34.113Z,3.27
2019-04-22T11:28:09.835Z,3.43
2019-04-22T11:30:44.919Z,3.50
2019-04-22T11:33:18.300Z,3.33
2019-04-22T11:35:53.481Z,3.20
2019-04-22T11:38:26.696Z,3.20
2019-04-22T11:41:01.878Z,2.70
2019-04-22T11:43:34.716Z,2.93
2019-04-22T11:46:11.434Z,3.37
2019-04-22T11:48:48.204Z,3.40
2019-04-22T11:51:22.128Z,2.90
2019-04-22T11:54:05.118Z,2.83
2019-04-22T11:56:38.990Z,3.40
2019-04-22T11:59:22.881Z,2.60
2019-04-22T12:01:52.820Z,3.30
2019-04-22T12:04:20.224Z,2.87
2019-04-22T12:06:47.496Z,3.03
2019-04-22T12:09:17.581Z,2.90
2019-04-22T12:11:45.028Z,2.50
2019-04-22T12:14:12.071Z,2.90
2019-04-22T12:16:39.488Z,3.23
2019-04-22T12:19:07.212Z,2.80
2019-04-22T12:21:35.544Z,3.10
2019-04-22T12:24:05.428Z,2.70
2019-04-22T12:26:32.849Z,3.00
2019-04-22T12:29:00.044Z,2.57
2019-04-22T12:31:27.546Z,2.77
2019-04-22T12:33:55.111Z,2.70
2019-04-22T12:36:22.795Z,2.70
2019-04-22T12:38:51.426Z,2.70
2019-04-22T12:41:19.709Z,2.60
2019-04-22T12:43:47.458Z,2.70
2019-04-22T12:46:16.221Z,2.40
2019-04-22T12:48:46.901Z,2.70
2019-04-22T12:51:15.350Z,2.87
2019-04-22T12:53:42.626Z,2.40
2019-04-22T12:56:10.974Z,2.70
2019-04-22T12:58:45.537Z,2.77
2019-04-22T13:01:13.108Z,2.30
2019-04-22T13:03:42.605Z,2.67
2019-04-22T13:06:09.984Z,2.63
2019-04-22T13:08:38.088Z,2.53
2019-04-22T13:11:11.750Z,2.60
2019-04-22T13:13:34.620Z,2.80
2019-04-22T13:16:02.798Z,2.33
2019-04-22T13:18:38.120Z,2.47
2019-04-22T13:21:00.407Z,2.13
2019-04-22T13:23:29.821Z,2.47
2019-04-22T13:25:57.069Z,2.40
2019-04-22T13:28:25.180Z,2.17
2019-04-22T13:30:52.697Z,2.43
2019-04-22T13:33:20.999Z,2.70
2019-04-22T13:35:48.177Z,2.30
2019-04-22T13:38:15.345Z,2.67
2019-04-22T13:40:59.226Z,2.07
2019-04-22T13:43:13.165Z,2.10
2019-04-22T13:45:40.744Z,2.30
2019-04-22T13:48:23.967Z,2.23
2019-04-22T13:51:09.637Z,2.20
2019-04-22T13:55:57.917Z,1.93
2019-04-22T13:58:18.449Z,2.40
2019-04-22T14:00:34.471Z,2.10
2019-04-22T14:03:22.526Z,2.17
2019-04-22T14:05:50.926Z,1.93
2019-04-22T14:08:19.960Z,2.00
2019-04-22T14:10:48.408Z,2.03
2019-04-22T14:13:16.119Z,1.80
2019-04-22T14:15:43.851Z,1.93
2019-04-22T14:18:11.117Z,2.50
2019-04-22T14:20:38.706Z,1.70
2019-04-22T14:23:06.641Z,1.73
2019-04-22T14:25:34.910Z,1.60
2019-04-22T14:28:09.148Z,2.00
2019-04-22T14:30:32.571Z,1.90
2019-04-22T14:33:00.395Z,2.03
2019-04-22T14:35:29.065Z,1.90
2019-04-22T14:37:56.506Z,1.87
2019-04-22T14:40:26.277Z,2.20
2019-04-22T14:43:14.889Z,1.87
2019-04-22T14:45:58.053Z,2.10
2019-04-22T14:48:13.690Z,2.00
2019-04-22T14:50:40.493Z,1.50
2019-04-22T14:53:09.797Z,1.90
2019-04-22T14:55:23.889Z,1.73
2019-04-22T14:57:49.015Z,2.17
2019-04-22T15:00:18.048Z,2.17
2019-04-22T15:02:46.051Z,1.80
2019-04-22T15:05:14.357Z,2.00
2019-04-22T15:07:43.225Z,1.93
2019-04-22T15:10:11.094Z,2.10
2019-04-22T15:12:44.566Z,1.80
2019-04-22T15:15:23.552Z,1.90
2019-04-22T15:17:58.843Z,1.70
2019-04-22T15:20:48.742Z,1.93
2019-04-22T15:23:14.889Z,2.20
2019-04-22T15:25:42.140Z,2.00
2019-04-22T15:28:11.127Z,2.00
2019-04-22T15:30:39.381Z,1.67
2019-04-22T15:33:07.440Z,1.93
2019-04-22T15:35:35.463Z,1.70
2019-04-22T15:38:04.511Z,1.60
2019-04-22T15:40:32.068Z,1.93
2019-04-22T15:42:59.289Z,1.40
2019-04-22T15:45:26.601Z,1.80
2019-04-22T15:47:53.888Z,2.00
2019-04-22T15:50:22.373Z,1.70
2019-04-22T15:52:53.252Z,1.77
2019-04-22T15:55:22.825Z,2.07
2019-04-22T15:57:50.116Z,2.13
2019-04-22T16:00:29.341Z,2.17
2019-04-22T16:02:47.601Z,1.93
2019-04-22T16:05:15.163Z,2.20
2019-04-22T16:07:42.335Z,1.87
2019-04-22T16:10:10.126Z,1.73
2019-04-22T16:12:49.371Z,2.17
2019-04-22T16:15:07.518Z,2.00
2019-04-22T16:17:37.086Z,2.20
2019-04-22T16:20:06.856Z,2.20
2019-04-22T16:22:55.021Z,2.23
2019-04-22T16:25:41.078Z,1.87
2019-04-22T16:28:08.981Z,2.00
2019-04-22T16:30:37.383Z,2.00
2019-04-22T16:33:05.723Z,1.83
2019-04-22T16:35:33.133Z,1.57
2019-04-22T16:38:01.026Z,2.07
2019-04-22T16:40:30.560Z,2.43
2019-04-22T16:43:01.969Z,1.90
2019-04-22T16:45:27.390Z,1.83
2019-04-22T16:47:55.611Z,1.90
2019-04-22T16:50:25.058Z,1.97
2019-04-22T16:52:52.476Z,1.97
2019-04-22T16:55:21.063Z,1.70
2019-04-22T16:57:48.375Z,2.20
2019-04-22T17:00:16.602Z,2.07
2019-04-22T17:03:09.154Z,2.13
2019-04-22T17:05:54.219Z,2.07
2019-04-22T17:08:24.404Z,1.87
2019-04-22T17:10:51.965Z,2.67
2019-04-22T17:13:23.344Z,2.20
2019-04-22T17:15:49.429Z,2.10
2019-04-22T17:18:17.184Z,2.07
2019-04-22T17:20:44.742Z,2.10
2019-04-22T17:23:11.901Z,1.90
2019-04-22T17:25:40.398Z,1.83
2019-04-22T17:28:07.840Z,1.93
2019-04-22T17:30:36.007Z,1.80
2019-04-22T17:33:04.817Z,1.93
2019-04-22T17:35:34.028Z,2.27
2019-04-22T17:38:10.127Z,2.50
2019-04-22T17:40:49.431Z,2.07
2019-04-22T17:43:32.646Z,2.37
2019-04-22T17:46:19.502Z,1.93
2019-04-22T17:49:12.152Z,2.10
2019-04-22T17:51:36.706Z,2.00
2019-04-22T17:54:12.040Z,2.00
2019-04-22T17:56:37.600Z,2.20
2019-04-22T17:59:10.452Z,1.97
2019-04-22T18:01:32.655Z,1.90
2019-04-22T18:03:49.820Z,2.10
2019-04-22T18:06:42.639Z,1.97
2019-04-22T18:09:03.612Z,2.10
2019-04-22T18:11:41.523Z,2.23
2019-04-22T18:14:11.592Z,2.00
2019-04-22T18:16:34.452Z,2.00
2019-04-22T18:19:00.559Z,2.27
2019-04-22T18:21:23.216Z,2.10
2019-04-22T18:23:52.059Z,2.20
2019-04-22T18:26:27.635Z,1.90
2019-04-22T18:28:54.352Z,1.90
2019-04-22T18:31:17.405Z,1.70
2019-04-22T18:33:50.371Z,1.80
2019-04-22T18:36:19.655Z,2.23
2019-04-22T18:38:58.690Z,1.80
2019-04-22T18:41:17.833Z,2.23
2019-04-22T18:44:00.511Z,1.77
2019-04-22T18:46:20.900Z,2.10
2019-04-22T18:48:53.951Z,2.03
2019-04-22T18:51:28.960Z,2.80
2019-04-22T18:54:30.996Z,2.30
2019-04-22T18:56:57.060Z,3.93
2019-04-22T18:59:14.622Z,2.40
2019-04-22T19:01:37.789Z,2.00
2019-04-22T19:04:12.936Z,2.40
2019-04-22T19:06:55.685Z,2.30
2019-04-22T19:09:40.394Z,2.50
2019-04-22T19:12:10.330Z,2.57
2019-04-22T19:14:33.478Z,2.47
2019-04-22T19:17:08.238Z,2.43
2019-04-22T19:21:56.029Z,2.40
2019-04-22T19:24:19.694Z,2.50
2019-04-22T19:29:28.554Z,2.30
2019-04-22T19:31:52.325Z,2.37
2019-04-22T19:34:23.373Z,2.00
2019-04-22T19:36:51.614Z,2.33
2019-04-22T19:39:11.791Z,2.07
2019-04-22T19:41:53.676Z,2.40
2019-04-22T19:44:20.125Z,2.30
2019-04-22T19:46:53.235Z,2.07
2019-04-22T19:49:29.356Z,2.47
2019-04-22T19:51:52.647Z,2.53
2019-04-22T19:54:15.697Z,2.20
2019-04-22T19:56:36.467Z,2.37
2019-04-22T19:59:12.358Z,2.40
2019-04-22T20:01:56.886Z,2.60
2019-04-22T20:04:41.912Z,2.37
2019-04-22T20:07:09.474Z,2.33
2019-04-22T20:09:43.743Z,2.23
2019-04-22T20:12:04.525Z,2.33
2019-04-22T20:14:43.696Z,2.10
2019-04-22T20:17:02.606Z,2.70
2019-04-22T20:22:03.501Z,2.77
2019-04-22T20:24:20.730Z,2.57
2019-04-22T20:27:02.975Z,2.43
2019-04-22T20:29:40.090Z,2.50
2019-04-22T20:32:05.318Z,2.37
2019-04-22T20:34:35.519Z,2.70
2019-04-22T20:39:33.187Z,2.40
2019-04-22T20:42:14.781Z,2.20
2019-04-22T20:44:35.311Z,2.47
2019-04-22T20:46:59.026Z,2.40
2019-04-22T20:49:33.782Z,2.17
2019-04-22T20:52:08.042Z,2.43
2019-04-22T20:54:22.993Z,2.50
2019-04-22T20:56:51.611Z,2.10
2019-04-22T20:59:23.791Z,2.43
2019-04-22T21:01:54.948Z,2.50
2019-04-22T21:04:11.481Z,2.57
2019-04-22T21:06:47.743Z,2.30
2019-04-22T21:09:22.043Z,2.70
2019-04-22T21:11:49.407Z,2.20
2019-04-22T21:14:14.784Z,2.37
2019-04-22T21:16:53.230Z,3.07
2019-04-22T21:19:29.745Z,2.90
2019-04-22T21:21:50.243Z,2.27
2019-04-22T21:24:18.110Z,3.23
2019-04-22T21:26:45.376Z,2.67
2019-04-22T21:29:12.986Z,2.90
2019-04-22T21:31:46.457Z,2.60
2019-04-22T21:34:10.319Z,2.67
2019-04-22T21:36:46.199Z,2.90
2019-04-22T21:39:10.992Z,3.50
2019-04-22T21:41:44.596Z,3.70
2019-04-22T21:44:10.331Z,3.03
2019-04-22T21:46:44.328Z,2.77
2019-04-22T21:49:10.872Z,3.07
2019-04-22T21:51:43.252Z,3.00
2019-04-22T21:57:01.769Z,3.00
2019-04-22T21:59:17.604Z,3.07
2019-04-22T22:04:20.653Z,2.90
2019-04-22T22:06:41.258Z,3.13
2019-04-22T22:09:20.495Z,2.97
2019-04-22T22:11:49.145Z,2.80
2019-04-22T22:14:18.085Z,2.97
2019-04-22T22:16:43.511Z,2.83
2019-04-22T22:19:17.178Z,3.10
2019-04-22T22:21:51.352Z,2.60
2019-04-22T22:24:21.131Z,3.20
2019-04-22T22:26:45.774Z,2.97
2019-04-22T22:29:20.196Z,3.37
2019-04-22T22:31:47.051Z,3.10
2019-04-22T22:34:13.668Z,3.07
2019-04-22T22:36:36.354Z,3.13
2019-04-22T22:39:05.726Z,3.10
2019-04-22T22:41:19.009Z,3.13
2019-04-22T22:43:51.029Z,2.97
2019-04-22T22:46:29.235Z,3.33
2019-04-22T22:49:09.865Z,3.33
2019-04-22T22:51:40.270Z,3.47
2019-04-22T22:54:03.864Z,3.37
2019-04-22T22:56:42.243Z,2.90
2019-04-22T22:59:02.865Z,3.10
2019-04-22T23:01:37.402Z,3.37
2019-04-22T23:04:02.505Z,3.47
2019-04-22T23:06:32.865Z,3.13
2019-04-22T23:09:05.705Z,3.20
2019-04-22T23:11:50.807Z,3.70
2019-04-22T23:13:56.840Z,2.90
2019-04-22T23:16:18.249Z,3.93
2019-04-22T23:18:55.388Z,2.73
2019-04-22T23:21:31.275Z,3.47
2019-04-22T23:24:12.894Z,3.43
2019-04-22T23:26:42.219Z,3.40
2019-04-22T23:29:24.916Z,3.37
2019-04-22T23:32:00.381Z,4.13
2019-04-22T23:34:26.660Z,3.40
2019-04-22T23:37:22.767Z,3.33
2019-04-22T23:39:59.016Z,3.40
2019-04-22T23:42:27.398Z,3.23
2019-04-22T23:44:56.973Z,3.87
2019-04-22T23:47:26.430Z,4.00
2019-04-22T23:50:01.027Z,3.10
2019-04-22T23:52:35.657Z,3.20
2019-04-22T23:55:06.864Z,3.40
2019-04-22T23:57:34.780Z,3.17
